createdAt,value
2023-05-19T00:00:00.296Z,74.37
2023-05-19T00:01:02.321Z,75.15
2023-05-19T00:02:09.094Z,74.93
2023-05-19T00:03:13.040Z,74.58
2023-05-19T00:04:17.820Z,74.11
2023-05-19T00:05:20.131Z,73.93
2023-05-19T00:06:25.385Z,73.26
2023-05-19T00:07:31.013Z,73.38
2023-05-19T00:08:35.462Z,74.04
2023-05-19T00:09:37.525Z,73.66
2023-05-19T00:10:40.706Z,74.16
2023-05-19T00:11:42.546Z,73.81
2023-05-19T00:12:46.250Z,74.10
2023-05-19T00:13:49.628Z,73.85
2023-05-19T00:14:52.917Z,73.90
2023-05-19T00:15:54.975Z,73.44
2023-05-19T00:16:57.988Z,72.83
2023-05-19T00:17:59.582Z,72.62
2023-05-19T00:19:03.936Z,73.20
2023-05-19T00:20:08.417Z,73.08
2023-05-19T00:21:10.986Z,73.25
2023-05-19T00:22:12.466Z,73.41
2023-05-19T00:23:14.921Z,73.60
2023-05-19T00:24:16.458Z,74.21
2023-05-19T00:25:18.932Z,73.65
2023-05-19T00:26:22.652Z,73.04
2023-05-19T00:27:25.130Z,73.03
2023-05-19T00:28:26.652Z,73.27
2023-05-19T00:29:29.530Z,73.74
2023-05-19T00:30:31.396Z,73.63
2023-05-19T00:31:35.083Z,73.17
2023-05-19T00:32:36.669Z,72.86
2023-05-19T00:33:39.166Z,73.30
2023-05-19T00:34:40.923Z,72.82
2023-05-19T00:35:44.716Z,73.11
2023-05-19T00:36:46.223Z,73.66
2023-05-19T00:37:48.848Z,73.02
2023-05-19T00:38:51.252Z,73.16
2023-05-19T00:39:53.714Z,72.77
2023-05-19T00:40:55.456Z,73.08
2023-05-19T00:41:58.192Z,73.08
2023-05-19T00:42:59.924Z,73.04
2023-05-19T00:44:02.517Z,73.44
2023-05-19T00:45:04.818Z,73.91
2023-05-19T00:46:07.784Z,73.83
2023-05-19T00:47:09.446Z,74.22
2023-05-19T00:48:11.906Z,74.73
2023-05-19T00:49:13.482Z,75.09
2023-05-19T00:50:16.209Z,75.84
2023-05-19T00:51:20.583Z,77.18
2023-05-19T00:52:22.184Z,76.79
2023-05-19T00:53:25.595Z,78.40
2023-05-19T00:54:27.481Z,80.64
2023-05-19T00:55:32.656Z,82.21
2023-05-19T00:56:34.203Z,83.47
2023-05-19T00:57:37.084Z,85.01
2023-05-19T00:58:39.272Z,86.25
2023-05-19T00:59:41.860Z,85.72
2023-05-19T01:00:44.278Z,83.89
2023-05-19T01:01:49.032Z,82.01
2023-05-19T01:02:51.176Z,81.24
2023-05-19T01:03:56.707Z,80.28
2023-05-19T01:04:59.548Z,79.20
2023-05-19T01:06:04.877Z,78.50
2023-05-19T01:07:07.955Z,79.28
2023-05-19T01:08:10.521Z,81.36
2023-05-19T01:09:12.293Z,82.32
2023-05-19T01:10:14.830Z,81.79
2023-05-19T01:11:16.310Z,81.65
2023-05-19T01:12:18.955Z,81.41
2023-05-19T01:13:20.774Z,82.61
2023-05-19T01:14:23.601Z,82.94
2023-05-19T01:15:27.531Z,83.12
2023-05-19T01:16:32.403Z,83.65
2023-05-19T01:17:45.803Z,85.22
2023-05-19T01:20:13.593Z,85.97
2023-05-19T01:21:37.626Z,86.98
2023-05-19T01:23:00.377Z,87.37
2023-05-19T01:24:14.296Z,88.50
2023-05-19T01:25:45.239Z,88.26
2023-05-19T01:27:19.583Z,88.80
2023-05-19T01:28:32.557Z,87.77
2023-05-19T01:29:44.195Z,87.08
2023-05-19T01:30:52.576Z,87.49
2023-05-19T01:32:00.313Z,86.50
2023-05-19T01:33:06.748Z,86.08
2023-05-19T01:34:11.632Z,86.05
2023-05-19T01:35:15.482Z,86.02
2023-05-19T01:36:20.115Z,85.33
2023-05-19T01:37:21.971Z,83.74
2023-05-19T01:38:26.074Z,81.92
2023-05-19T01:39:28.465Z,80.85
2023-05-19T01:40:31.883Z,81.13
2023-05-19T01:41:34.589Z,80.53
2023-05-19T01:42:39.982Z,80.27
2023-05-19T01:43:42.470Z,79.89
2023-05-19T01:44:45.562Z,79.15
2023-05-19T01:45:49.030Z,78.62
2023-05-19T01:46:52.026Z,78.19
2023-05-19T01:47:56.119Z,77.80
2023-05-19T01:48:59.533Z,77.28
2023-05-19T01:50:01.055Z,76.25
2023-05-19T01:51:03.660Z,75.63
2023-05-19T01:52:05.926Z,75.50
2023-05-19T01:53:08.628Z,75.16
2023-05-19T01:54:10.142Z,74.75
2023-05-19T01:55:12.706Z,74.14
2023-05-19T01:56:19.437Z,74.67
2023-05-19T01:57:30.073Z,74.31
2023-05-19T01:58:40.716Z,73.88
2023-05-19T01:59:52.176Z,74.29
2023-05-19T02:01:03.078Z,74.59
2023-05-19T02:02:17.308Z,74.43
2023-05-19T02:03:40.933Z,75.41
2023-05-19T02:04:51.739Z,76.35
2023-05-19T02:05:55.971Z,76.07
2023-05-19T02:07:04.532Z,75.50
2023-05-19T02:08:13.042Z,74.75
2023-05-19T02:09:19.556Z,74.24
2023-05-19T02:10:27.363Z,73.64
2023-05-19T02:11:37.842Z,73.60
2023-05-19T02:12:40.673Z,73.20
2023-05-19T02:13:45.474Z,72.84
2023-05-19T02:14:51.730Z,72.51
2023-05-19T02:15:58.804Z,72.53
2023-05-19T02:17:00.981Z,72.45
2023-05-19T02:18:04.701Z,71.83
2023-05-19T02:19:06.335Z,71.95
2023-05-19T02:20:10.038Z,71.99
2023-05-19T02:21:13.375Z,72.03
2023-05-19T02:22:15.959Z,72.77
2023-05-19T02:23:17.469Z,72.30
2023-05-19T02:24:22.735Z,71.96
2023-05-19T02:25:24.421Z,71.56
2023-05-19T02:26:26.960Z,71.60
2023-05-19T02:27:28.562Z,71.90
2023-05-19T02:28:31.013Z,71.57
2023-05-19T02:29:32.591Z,72.17
2023-05-19T02:30:35.193Z,72.32
2023-05-19T02:31:38.223Z,72.23
2023-05-19T02:32:41.084Z,72.14
2023-05-19T02:33:43.600Z,71.68
2023-05-19T02:34:46.137Z,71.80
2023-05-19T02:35:47.632Z,72.41
2023-05-19T02:36:50.661Z,72.42
2023-05-19T02:37:52.404Z,71.92
2023-05-19T02:38:54.883Z,72.09
2023-05-19T02:39:56.638Z,72.76
2023-05-19T02:40:59.061Z,72.47
2023-05-19T02:42:00.777Z,72.47
2023-05-19T02:43:03.439Z,72.35
2023-05-19T02:44:05.347Z,72.10
2023-05-19T02:45:08.803Z,71.91
2023-05-19T02:46:10.376Z,71.66
2023-05-19T02:47:14.496Z,71.63
2023-05-19T02:48:16.017Z,71.79
2023-05-19T02:49:18.509Z,71.77
2023-05-19T02:50:20.061Z,72.05
2023-05-19T02:51:22.481Z,71.93
2023-05-19T02:52:23.989Z,72.00
2023-05-19T02:53:26.535Z,72.68
2023-05-19T02:54:28.031Z,72.97
2023-05-19T02:55:30.473Z,72.98
2023-05-19T02:56:31.976Z,72.60
2023-05-19T02:57:35.932Z,72.07
2023-05-19T02:58:37.477Z,71.48
2023-05-19T02:59:39.911Z,71.45
2023-05-19T03:00:41.425Z,71.34
2023-05-19T03:01:43.941Z,71.26
2023-05-19T03:02:47.012Z,71.43
2023-05-19T03:03:49.707Z,71.29
2023-05-19T03:04:51.590Z,71.36
2023-05-19T03:05:54.479Z,71.94
2023-05-19T03:06:56.084Z,72.86
2023-05-19T03:07:58.688Z,72.46
2023-05-19T03:09:00.256Z,72.14
2023-05-19T03:10:04.004Z,72.11
2023-05-19T03:11:05.849Z,71.94
2023-05-19T03:12:08.536Z,71.69
2023-05-19T03:13:10.036Z,71.25
2023-05-19T03:14:13.712Z,70.73
2023-05-19T03:15:16.409Z,70.45
2023-05-19T03:16:19.077Z,70.09
2023-05-19T03:17:20.801Z,69.92
2023-05-19T03:18:25.234Z,70.40
2023-05-19T03:19:27.593Z,70.21
2023-05-19T03:20:30.972Z,69.88
2023-05-19T03:21:34.457Z,70.63
2023-05-19T03:22:36.914Z,71.07
2023-05-19T03:23:38.401Z,71.19
2023-05-19T03:24:40.826Z,71.61
2023-05-19T03:25:42.440Z,71.37
2023-05-19T03:26:45.019Z,72.31
2023-05-19T03:27:46.552Z,72.48
2023-05-19T03:28:49.118Z,72.94
2023-05-19T03:29:51.248Z,73.96
2023-05-19T03:30:53.759Z,73.24
2023-05-19T03:31:55.430Z,73.89
2023-05-19T03:32:58.007Z,73.63
2023-05-19T03:34:00.952Z,72.83
2023-05-19T03:35:03.420Z,73.42
2023-05-19T03:36:05.837Z,73.00
2023-05-19T03:37:08.261Z,72.47
2023-05-19T03:38:09.811Z,72.14
2023-05-19T03:39:12.558Z,72.15
2023-05-19T03:40:14.127Z,73.21
2023-05-19T03:41:16.909Z,73.97
2023-05-19T03:42:18.469Z,73.69
2023-05-19T03:43:20.921Z,74.32
2023-05-19T03:44:22.436Z,73.72
2023-05-19T03:45:24.922Z,73.25
2023-05-19T03:46:26.637Z,73.35
2023-05-19T03:47:29.222Z,73.51
2023-05-19T03:48:30.791Z,73.06
2023-05-19T03:49:34.719Z,73.09
2023-05-19T03:50:37.961Z,73.24
2023-05-19T03:51:41.037Z,73.35
2023-05-19T03:52:45.528Z,73.39
2023-05-19T03:53:48.696Z,73.07
2023-05-19T03:54:51.257Z,72.55
2023-05-19T03:55:55.456Z,72.75
2023-05-19T03:56:57.072Z,72.65
2023-05-19T03:57:59.588Z,72.35
2023-05-19T03:59:01.101Z,72.23
2023-05-19T04:00:04.093Z,71.96
2023-05-19T04:01:05.687Z,71.70
2023-05-19T04:02:08.389Z,72.39
2023-05-19T04:03:10.262Z,72.52
2023-05-19T04:04:12.918Z,72.74
2023-05-19T04:05:16.045Z,73.07
2023-05-19T04:06:19.083Z,72.43
2023-05-19T04:07:20.803Z,71.68
2023-05-19T04:08:23.274Z,71.73
2023-05-19T04:09:24.798Z,71.82
2023-05-19T04:10:27.241Z,72.80
2023-05-19T04:11:28.737Z,73.71
2023-05-19T04:12:31.917Z,73.61
2023-05-19T04:13:34.039Z,74.09
2023-05-19T04:14:36.450Z,74.10
2023-05-19T04:15:38.030Z,74.26
2023-05-19T04:16:41.667Z,75.41
2023-05-19T04:17:43.314Z,74.83
2023-05-19T04:18:46.439Z,75.17
2023-05-19T04:19:48.115Z,74.70
2023-05-19T04:20:52.098Z,73.88
2023-05-19T04:21:53.598Z,74.28
2023-05-19T04:22:56.013Z,73.86
2023-05-19T04:23:59.153Z,73.56
2023-05-19T04:25:01.801Z,74.11
2023-05-19T04:26:03.822Z,73.68
2023-05-19T04:27:12.115Z,74.36
2023-05-19T04:28:13.715Z,73.64
2023-05-19T04:29:17.977Z,73.30
2023-05-19T04:30:22.485Z,73.24
2023-05-19T04:31:26.134Z,74.01
2023-05-19T04:32:29.275Z,74.30
2023-05-19T04:33:33.921Z,73.77
2023-05-19T04:34:35.488Z,74.14
2023-05-19T04:35:39.643Z,73.75
2023-05-19T04:36:42.546Z,73.91
2023-05-19T04:37:45.901Z,73.74
2023-05-19T04:38:47.833Z,73.22
2023-05-19T04:39:50.365Z,73.42
2023-05-19T04:40:52.006Z,75.26
2023-05-19T04:41:55.003Z,75.37
2023-05-19T04:42:57.173Z,74.79
2023-05-19T04:43:59.618Z,74.91
2023-05-19T04:45:01.145Z,74.71
2023-05-19T04:46:06.118Z,75.35
2023-05-19T04:47:08.840Z,75.94
2023-05-19T04:48:12.219Z,75.44
2023-05-19T04:49:14.464Z,75.47
2023-05-19T04:50:17.259Z,75.90
2023-05-19T04:51:18.829Z,74.83
2023-05-19T04:52:22.788Z,74.92
2023-05-19T04:53:25.630Z,74.94
2023-05-19T04:54:28.578Z,75.29
2023-05-19T04:55:30.207Z,75.15
2023-05-19T04:56:32.642Z,75.10
2023-05-19T04:57:34.196Z,76.91
2023-05-19T04:58:39.105Z,76.75
2023-05-19T04:59:41.603Z,76.34
2023-05-19T05:00:44.069Z,75.43
2023-05-19T05:01:45.603Z,75.11
2023-05-19T05:02:49.063Z,75.77
2023-05-19T05:03:50.774Z,75.37
2023-05-19T05:04:54.469Z,74.69
2023-05-19T05:05:56.712Z,74.08
2023-05-19T05:06:59.259Z,74.42
2023-05-19T05:08:03.111Z,74.23
2023-05-19T05:09:05.603Z,73.62
2023-05-19T05:10:08.394Z,72.86
2023-05-19T05:11:11.735Z,71.89
2023-05-19T05:12:14.960Z,73.89
2023-05-19T05:13:17.917Z,74.49
2023-05-19T05:14:19.915Z,74.93
2023-05-19T05:15:24.224Z,74.25
2023-05-19T05:16:26.825Z,73.81
2023-05-19T05:17:29.769Z,74.03
2023-05-19T05:18:31.816Z,74.18
2023-05-19T05:19:35.116Z,74.18
2023-05-19T05:20:37.388Z,74.60
2023-05-19T05:21:41.465Z,73.85
2023-05-19T05:22:43.523Z,72.96
2023-05-19T05:23:47.866Z,73.17
2023-05-19T05:24:49.920Z,72.54
2023-05-19T05:25:52.995Z,72.15
2023-05-19T05:26:54.524Z,72.07
2023-05-19T05:27:58.874Z,71.77
2023-05-19T05:29:00.486Z,71.34
2023-05-19T05:30:02.983Z,71.27
2023-05-19T05:31:04.640Z,71.78
2023-05-19T05:32:07.944Z,71.23
2023-05-19T05:33:09.835Z,71.10
2023-05-19T05:34:12.573Z,71.62
2023-05-19T05:35:14.074Z,70.92
2023-05-19T05:36:16.576Z,70.42
2023-05-19T05:37:18.078Z,71.06
2023-05-19T05:38:20.631Z,71.33
2023-05-19T05:39:23.527Z,71.41
2023-05-19T05:40:26.177Z,71.30
2023-05-19T05:41:29.242Z,71.14
2023-05-19T05:42:31.800Z,71.31
2023-05-19T05:43:33.328Z,70.86
2023-05-19T05:44:36.169Z,70.69
2023-05-19T05:45:37.695Z,70.27
2023-05-19T05:46:40.591Z,70.30
2023-05-19T05:47:42.739Z,70.28
2023-05-19T05:48:45.931Z,70.33
2023-05-19T05:49:48.717Z,71.35
2023-05-19T05:50:53.007Z,71.40
2023-05-19T05:53:07.129Z,70.99
2023-05-19T05:54:12.151Z,72.20
2023-05-19T05:55:18.285Z,72.19
2023-05-19T05:56:20.876Z,72.10
2023-05-19T05:57:23.877Z,71.32
2023-05-19T05:58:25.868Z,70.36
2023-05-19T05:59:28.401Z,69.30
2023-05-19T06:00:30.240Z,68.75
2023-05-19T06:01:35.440Z,68.82
2023-05-19T06:02:37.262Z,68.41
2023-05-19T06:03:41.691Z,68.17
2023-05-19T06:04:43.950Z,67.89
2023-05-19T06:05:46.465Z,69.14
2023-05-19T06:06:48.973Z,68.99
2023-05-19T06:07:50.478Z,69.05
2023-05-19T06:08:53.081Z,68.51
2023-05-19T06:09:54.653Z,68.43
2023-05-19T06:10:58.956Z,68.18
2023-05-19T06:12:00.493Z,67.84
2023-05-19T06:13:02.969Z,67.78
2023-05-19T06:14:04.597Z,67.29
2023-05-19T06:15:08.860Z,67.83
2023-05-19T06:16:10.526Z,67.74
2023-05-19T06:17:13.148Z,68.48
2023-05-19T06:18:14.798Z,68.92
2023-05-19T06:19:17.391Z,68.90
2023-05-19T06:20:19.969Z,69.84
2023-05-19T06:21:22.738Z,70.80
2023-05-19T06:22:24.290Z,70.68
2023-05-19T06:23:28.986Z,70.25
2023-05-19T06:24:30.582Z,69.38
2023-05-19T06:25:33.384Z,68.88
2023-05-19T06:26:36.439Z,68.54
2023-05-19T06:27:38.996Z,68.98
2023-05-19T06:28:40.704Z,68.93
2023-05-19T06:29:43.176Z,69.05
2023-05-19T06:30:44.853Z,68.34
2023-05-19T06:31:47.377Z,68.27
2023-05-19T06:32:48.917Z,67.93
2023-05-19T06:33:51.388Z,67.57
2023-05-19T06:34:54.893Z,68.82
2023-05-19T06:35:56.401Z,68.17
2023-05-19T06:36:58.840Z,69.17
2023-05-19T06:38:00.606Z,69.48
2023-05-19T06:39:03.345Z,69.00
2023-05-19T06:40:05.825Z,69.09
2023-05-19T06:41:08.361Z,68.91
2023-05-19T06:42:11.267Z,68.55
2023-05-19T06:43:13.753Z,69.06
2023-05-19T06:44:15.489Z,68.95
2023-05-19T06:45:21.738Z,68.14
2023-05-19T06:46:24.236Z,68.39
2023-05-19T06:47:26.092Z,68.36
2023-05-19T06:48:28.678Z,68.60
2023-05-19T06:49:30.398Z,68.14
2023-05-19T06:50:33.099Z,69.52
2023-05-19T06:51:35.375Z,69.81
2023-05-19T06:52:39.138Z,69.19
2023-05-19T06:53:41.899Z,68.91
2023-05-19T06:54:44.382Z,68.88
2023-05-19T06:55:58.125Z,68.78
2023-05-19T06:57:02.134Z,68.88
2023-05-19T06:58:05.011Z,69.68
2023-05-19T06:59:07.432Z,69.60
2023-05-19T07:00:11.543Z,69.69
2023-05-19T07:01:14.055Z,69.61
2023-05-19T07:02:15.777Z,69.03
2023-05-19T07:03:18.364Z,69.57
2023-05-19T07:04:20.948Z,69.55
2023-05-19T07:05:22.623Z,68.80
2023-05-19T07:06:25.126Z,69.86
2023-05-19T07:07:27.137Z,70.72
2023-05-19T07:08:29.713Z,70.25
2023-05-19T07:09:31.249Z,70.28
2023-05-19T07:10:33.878Z,70.75
2023-05-19T07:11:35.626Z,68.94
2023-05-19T07:12:38.074Z,68.42
2023-05-19T07:13:41.877Z,68.72
2023-05-19T07:14:43.384Z,68.44
2023-05-19T07:15:46.330Z,67.42
2023-05-19T07:16:47.994Z,67.21
2023-05-19T07:17:50.845Z,67.58
2023-05-19T07:18:52.642Z,67.47
2023-05-19T07:19:55.122Z,67.31
2023-05-19T07:20:58.308Z,67.02
2023-05-19T07:22:00.775Z,68.10
2023-05-19T07:23:02.803Z,68.57
2023-05-19T07:24:05.534Z,67.88
2023-05-19T07:25:07.602Z,67.51
2023-05-19T07:26:10.346Z,67.86
2023-05-19T07:27:11.899Z,66.87
2023-05-19T07:28:14.367Z,66.76
2023-05-19T07:29:17.197Z,66.72
2023-05-19T07:30:19.719Z,66.74
2023-05-19T07:31:21.645Z,66.44
2023-05-19T07:32:24.369Z,67.00
2023-05-19T07:33:27.744Z,68.24
2023-05-19T07:34:30.241Z,68.91
2023-05-19T07:35:32.826Z,68.43
2023-05-19T07:36:34.409Z,67.73
2023-05-19T07:37:36.966Z,67.29
2023-05-19T07:38:39.550Z,67.85
2023-05-19T07:39:41.134Z,67.97
2023-05-19T07:40:43.606Z,67.82
2023-05-19T07:41:45.136Z,68.61
2023-05-19T07:42:50.045Z,68.46
2023-05-19T07:43:51.767Z,69.57
2023-05-19T07:44:55.567Z,69.53
2023-05-19T07:45:57.275Z,67.99
2023-05-19T07:46:59.854Z,67.87
2023-05-19T07:48:02.324Z,67.87
2023-05-19T07:49:05.339Z,68.68
2023-05-19T07:50:07.825Z,68.68
2023-05-19T07:51:10.522Z,68.29
2023-05-19T07:52:12.957Z,66.95
2023-05-19T07:53:14.631Z,65.78
2023-05-19T07:54:17.108Z,65.41
2023-05-19T07:55:19.199Z,64.96
2023-05-19T07:56:22.025Z,64.13
2023-05-19T07:57:25.643Z,64.00
2023-05-19T07:58:28.262Z,63.04
2023-05-19T07:59:30.927Z,63.64
2023-05-19T08:00:33.959Z,64.05
2023-05-19T08:01:36.803Z,64.45
2023-05-19T08:02:38.500Z,63.28
2023-05-19T08:03:41.089Z,63.67
2023-05-19T08:04:43.704Z,63.75
2023-05-19T08:05:45.545Z,64.46
2023-05-19T08:06:47.994Z,63.87
2023-05-19T08:07:50.600Z,63.95
2023-05-19T08:08:54.245Z,64.38
2023-05-19T08:09:55.877Z,63.94
2023-05-19T08:10:58.363Z,63.79
2023-05-19T08:12:01.482Z,63.13
2023-05-19T08:13:03.056Z,62.84
2023-05-19T08:14:05.729Z,61.63
2023-05-19T08:15:08.498Z,61.24
2023-05-19T08:16:12.296Z,61.15
2023-05-19T08:17:14.838Z,61.67
2023-05-19T08:18:16.476Z,61.73
2023-05-19T08:19:19.024Z,62.33
2023-05-19T08:20:22.444Z,62.43
2023-05-19T08:21:25.021Z,62.48
2023-05-19T08:22:28.196Z,62.28
2023-05-19T08:23:30.819Z,62.70
2023-05-19T08:24:33.931Z,63.58
2023-05-19T08:25:35.620Z,63.52
2023-05-19T08:26:38.268Z,64.26
2023-05-19T08:27:40.783Z,62.98
2023-05-19T08:28:42.332Z,63.52
2023-05-19T08:29:44.843Z,64.05
2023-05-19T08:30:47.392Z,63.45
2023-05-19T08:31:53.039Z,62.06
2023-05-19T08:32:55.658Z,61.65
2023-05-19T08:33:58.140Z,60.90
2023-05-19T08:34:59.726Z,61.49
2023-05-19T08:36:02.312Z,60.90
2023-05-19T08:37:04.360Z,60.96
2023-05-19T08:38:25.487Z,61.10
2023-05-19T08:39:46.797Z,60.84
2023-05-19T08:41:08.096Z,59.45
2023-05-19T08:42:32.842Z,59.32
2023-05-19T08:43:56.092Z,58.55
2023-05-19T08:45:19.015Z,59.76
2023-05-19T08:46:42.238Z,60.25
2023-05-19T08:48:07.675Z,60.73
2023-05-19T08:49:34.777Z,60.99
2023-05-19T08:51:08.655Z,59.47
2023-05-19T08:52:36.663Z,59.81
2023-05-19T08:54:08.405Z,60.58
2023-05-19T08:55:36.922Z,61.05
2023-05-19T08:57:00.097Z,60.81
2023-05-19T08:58:23.526Z,59.64
2023-05-19T08:59:46.693Z,60.95
2023-05-19T09:01:09.790Z,60.37
2023-05-19T09:02:33.542Z,58.47
2023-05-19T09:03:58.091Z,58.80
2023-05-19T09:05:21.343Z,58.90
2023-05-19T09:06:45.075Z,59.58
2023-05-19T09:08:08.495Z,56.84
2023-05-19T09:09:31.580Z,55.46
2023-05-19T09:10:54.380Z,55.29
2023-05-19T09:12:17.376Z,55.95
2023-05-19T09:13:40.940Z,55.40
2023-05-19T09:15:04.705Z,56.48
2023-05-19T09:16:29.939Z,56.52
2023-05-19T09:18:04.054Z,56.18
2023-05-19T09:19:30.177Z,56.02
2023-05-19T09:20:59.265Z,56.16
2023-05-19T09:22:22.266Z,56.86
2023-05-19T09:23:48.721Z,58.73
2023-05-19T09:25:20.444Z,60.03
2023-05-19T09:26:44.000Z,59.39
2023-05-19T09:28:09.741Z,59.68
2023-05-19T09:29:32.584Z,59.97
2023-05-19T09:31:01.422Z,58.95
2023-05-19T09:32:28.279Z,58.23
2023-05-19T09:33:53.339Z,57.56
2023-05-19T09:35:20.154Z,58.06
2023-05-19T09:36:43.372Z,56.22
2023-05-19T09:38:06.281Z,56.82
2023-05-19T09:39:29.671Z,56.39
2023-05-19T09:40:53.122Z,55.25
2023-05-19T09:42:16.729Z,54.37
2023-05-19T09:43:39.550Z,55.18
2023-05-19T09:45:01.729Z,55.20
2023-05-19T09:46:26.658Z,55.29
2023-05-19T09:47:49.587Z,54.75
2023-05-19T09:49:12.896Z,54.87
2023-05-19T09:50:37.364Z,54.71
2023-05-19T09:52:01.076Z,54.71
2023-05-19T09:53:25.364Z,55.46
2023-05-19T09:54:49.929Z,55.78
2023-05-19T09:56:15.290Z,56.09
2023-05-19T09:57:38.808Z,55.62
2023-05-19T09:59:02.525Z,55.04
2023-05-19T10:00:26.339Z,54.36
2023-05-19T10:01:49.741Z,54.51
2023-05-19T10:03:13.430Z,54.26
2023-05-19T10:04:37.160Z,53.96
2023-05-19T10:06:02.598Z,53.38
2023-05-19T10:07:25.627Z,53.74
2023-05-19T10:08:50.450Z,53.99
2023-05-19T10:10:14.401Z,53.13
2023-05-19T10:11:37.575Z,55.02
2023-05-19T10:13:01.223Z,54.94
2023-05-19T10:14:24.583Z,53.93
2023-05-19T10:15:57.987Z,54.95
2023-05-19T10:17:22.560Z,54.84
2023-05-19T10:18:45.780Z,54.10
2023-05-19T10:20:10.887Z,53.93
2023-05-19T10:21:35.078Z,53.11
2023-05-19T10:22:57.903Z,52.51
2023-05-19T10:24:21.386Z,50.66
2023-05-19T10:25:44.828Z,51.32
2023-05-19T10:27:11.761Z,50.55
2023-05-19T10:28:37.954Z,49.74
2023-05-19T10:30:09.264Z,48.70
2023-05-19T10:31:35.643Z,49.04
2023-05-19T10:33:01.013Z,50.29
2023-05-19T10:34:59.613Z,48.72
2023-05-19T10:36:40.127Z,47.51
2023-05-19T10:38:16.271Z,45.51
2023-05-19T10:39:44.233Z,44.98
2023-05-19T10:41:12.328Z,44.71
2023-05-19T10:42:44.272Z,45.11
2023-05-19T10:44:13.598Z,47.07
2023-05-19T10:45:46.981Z,48.55
2023-05-19T10:47:12.113Z,49.47
2023-05-19T10:48:36.459Z,46.98
2023-05-19T10:50:01.670Z,47.81
2023-05-19T10:51:31.356Z,47.94
2023-05-19T10:52:55.848Z,46.67
2023-05-19T10:54:40.727Z,45.18
2023-05-19T10:56:04.294Z,45.65
2023-05-19T10:57:28.697Z,46.55
2023-05-19T10:58:52.106Z,50.21
2023-05-19T11:00:28.834Z,50.57
2023-05-19T11:01:51.732Z,50.66
2023-05-19T11:03:14.760Z,51.46
2023-05-19T11:04:48.892Z,52.77
2023-05-19T11:06:21.639Z,51.47
2023-05-19T11:07:46.222Z,50.91
2023-05-19T11:09:14.435Z,50.02
2023-05-19T11:10:38.672Z,49.57
2023-05-19T11:12:04.344Z,48.13
2023-05-19T11:13:28.624Z,48.44
2023-05-19T11:14:53.700Z,48.47
2023-05-19T11:16:20.515Z,48.00
2023-05-19T11:17:48.305Z,46.50
2023-05-19T11:19:19.829Z,45.89
2023-05-19T11:20:44.308Z,47.24
2023-05-19T11:22:11.595Z,47.14
2023-05-19T11:23:35.563Z,48.43
2023-05-19T11:24:58.737Z,50.41
2023-05-19T11:26:44.191Z,50.00
2023-05-19T11:28:07.025Z,51.33
2023-05-19T11:29:34.219Z,50.90
2023-05-19T11:31:00.048Z,48.98
2023-05-19T11:32:24.012Z,47.71
2023-05-19T11:33:47.005Z,48.09
2023-05-19T11:35:11.191Z,46.12
2023-05-19T11:36:34.974Z,45.63
2023-05-19T11:37:58.158Z,46.75
2023-05-19T11:39:21.162Z,47.15
2023-05-19T11:40:44.810Z,46.52
2023-05-19T11:42:10.525Z,45.39
2023-05-19T11:43:33.505Z,44.89
2023-05-19T11:44:57.133Z,44.96
2023-05-19T11:46:20.100Z,46.43
2023-05-19T11:48:00.876Z,46.59
2023-05-19T11:49:25.176Z,48.42
2023-05-19T11:50:48.034Z,48.29
2023-05-19T11:52:11.084Z,47.87
2023-05-19T11:53:36.630Z,47.99
2023-05-19T11:55:01.678Z,48.62
2023-05-19T11:56:24.783Z,48.26
2023-05-19T11:59:32.296Z,47.34
2023-05-19T12:00:56.567Z,46.71
2023-05-19T12:02:20.765Z,47.80
2023-05-19T12:03:44.026Z,47.36
2023-05-19T12:05:07.578Z,47.48
2023-05-19T12:06:31.135Z,50.62
2023-05-19T12:07:54.123Z,51.81
2023-05-19T12:09:16.998Z,51.32
2023-05-19T12:10:40.598Z,51.64
2023-05-19T12:12:03.732Z,50.73
2023-05-19T12:13:28.481Z,50.36
2023-05-19T12:14:53.518Z,50.22
2023-05-19T12:16:16.411Z,49.69
2023-05-19T12:17:38.328Z,49.92
2023-05-19T12:19:01.297Z,47.90
2023-05-19T12:20:24.626Z,49.03
2023-05-19T12:21:47.626Z,48.92
2023-05-19T12:23:11.105Z,48.00
2023-05-19T12:24:34.559Z,47.67
2023-05-19T12:25:57.622Z,47.32
2023-05-19T12:27:22.013Z,46.77
2023-05-19T12:28:47.738Z,47.97
2023-05-19T12:30:12.706Z,47.90
2023-05-19T12:31:35.762Z,47.66
2023-05-19T12:32:59.097Z,47.74
2023-05-19T12:34:22.154Z,49.80
2023-05-19T12:35:46.110Z,49.17
2023-05-19T12:37:08.991Z,49.19
2023-05-19T12:38:31.859Z,47.76
2023-05-19T12:39:56.298Z,47.70
2023-05-19T12:41:19.428Z,47.01
2023-05-19T12:42:45.742Z,46.73
2023-05-19T12:44:16.203Z,46.95
2023-05-19T12:45:42.507Z,46.63
2023-05-19T12:47:05.005Z,47.05
2023-05-19T12:48:29.569Z,45.73
2023-05-19T12:49:56.412Z,46.58
2023-05-19T12:51:19.732Z,46.26
2023-05-19T12:52:45.058Z,46.61
2023-05-19T12:54:07.898Z,47.65
2023-05-19T12:55:30.968Z,46.88
2023-05-19T12:56:53.926Z,46.55
2023-05-19T12:58:17.138Z,46.65
2023-05-19T12:59:43.590Z,46.86
2023-05-19T13:01:08.730Z,49.30
2023-05-19T13:02:31.684Z,49.55
2023-05-19T13:03:54.808Z,48.13
2023-05-19T13:05:17.963Z,49.00
2023-05-19T13:06:41.745Z,49.92
2023-05-19T13:08:07.636Z,49.44
2023-05-19T13:09:34.979Z,49.77
2023-05-19T13:10:57.855Z,48.70
2023-05-19T13:12:21.188Z,49.48
2023-05-19T13:13:44.048Z,49.37
2023-05-19T13:15:09.106Z,49.29
2023-05-19T13:16:32.041Z,48.46
2023-05-19T13:17:56.224Z,48.92
2023-05-19T13:20:49.102Z,49.27
2023-05-19T13:22:11.928Z,48.53
2023-05-19T13:23:35.894Z,49.09
2023-05-19T13:24:59.810Z,48.27
2023-05-19T13:26:23.486Z,46.78
2023-05-19T13:27:46.118Z,47.42
2023-05-19T13:29:09.430Z,48.39
2023-05-19T13:30:33.062Z,47.97
2023-05-19T13:31:56.113Z,47.36
2023-05-19T13:33:18.067Z,47.21
2023-05-19T13:34:40.916Z,48.46
2023-05-19T13:36:03.720Z,49.28
2023-05-19T13:37:26.896Z,48.94
2023-05-19T13:38:49.720Z,48.43
2023-05-19T13:40:15.647Z,47.76
2023-05-19T13:41:38.476Z,47.98
2023-05-19T13:43:02.491Z,48.17
2023-05-19T13:44:25.815Z,50.00
2023-05-19T13:45:50.404Z,49.11
2023-05-19T13:47:13.814Z,49.55
2023-05-19T13:48:36.616Z,49.00
2023-05-19T13:49:59.466Z,48.84
2023-05-19T13:51:22.434Z,47.73
2023-05-19T13:52:45.342Z,47.29
2023-05-19T13:54:08.145Z,46.73
2023-05-19T13:55:31.183Z,46.58
2023-05-19T13:56:54.229Z,46.52
2023-05-19T13:58:17.985Z,47.21
2023-05-19T13:59:57.298Z,46.95
2023-05-19T14:01:25.807Z,47.77
2023-05-19T14:02:48.676Z,48.75
2023-05-19T14:04:11.834Z,48.68
2023-05-19T14:05:35.561Z,48.49
2023-05-19T14:06:58.638Z,49.10
2023-05-19T14:08:22.067Z,48.57
2023-05-19T14:09:46.084Z,48.63
2023-05-19T14:11:08.915Z,48.72
2023-05-19T14:12:41.586Z,48.60
2023-05-19T14:14:11.391Z,50.00
2023-05-19T14:15:37.829Z,48.62
2023-05-19T14:17:02.255Z,48.76
2023-05-19T14:18:25.045Z,48.33
2023-05-19T14:19:47.851Z,49.53
2023-05-19T14:21:10.693Z,49.04
2023-05-19T14:22:33.513Z,48.38
2023-05-19T14:23:56.316Z,48.60
2023-05-19T14:25:19.309Z,49.04
2023-05-19T14:26:42.094Z,48.94
2023-05-19T14:28:05.155Z,50.68
2023-05-19T14:29:31.041Z,51.04
2023-05-19T14:30:53.907Z,50.54
2023-05-19T14:32:18.110Z,50.26
2023-05-19T14:33:41.161Z,50.43
2023-05-19T14:35:04.295Z,50.39
2023-05-19T14:36:27.148Z,51.07
2023-05-19T14:37:52.308Z,51.60
2023-05-19T14:39:15.139Z,52.43
2023-05-19T14:40:37.308Z,51.62
2023-05-19T14:42:00.876Z,51.26
2023-05-19T14:43:24.054Z,50.85
2023-05-19T14:44:46.836Z,50.79
2023-05-19T14:46:09.816Z,51.24
2023-05-19T14:47:34.202Z,51.12
2023-05-19T14:48:57.109Z,51.35
2023-05-19T14:50:19.968Z,51.94
2023-05-19T14:51:42.759Z,51.67
2023-05-19T14:53:04.727Z,51.67
2023-05-19T14:54:27.536Z,52.19
2023-05-19T14:55:50.298Z,51.73
2023-05-19T14:57:13.113Z,51.80
2023-05-19T14:58:36.251Z,52.32
2023-05-19T14:59:59.047Z,52.18
2023-05-19T15:01:21.918Z,52.55
2023-05-19T15:02:46.284Z,52.14
2023-05-19T15:04:09.153Z,52.57
2023-05-19T15:05:31.982Z,53.31
2023-05-19T15:07:05.953Z,53.66
2023-05-19T15:08:32.314Z,54.16
2023-05-19T15:09:55.167Z,54.42
2023-05-19T15:11:17.991Z,54.41
2023-05-19T15:12:41.128Z,53.70
2023-05-19T15:14:04.332Z,53.19
2023-05-19T15:15:27.148Z,53.82
2023-05-19T15:16:50.071Z,53.52
2023-05-19T15:18:16.129Z,54.28
2023-05-19T15:19:40.927Z,55.21
2023-05-19T15:21:03.708Z,55.64
2023-05-19T15:22:26.524Z,55.54